Time;durP1;ratioP1;P1;durP2;ratioP2;P2;SDS_P1;SDS_P2;PMS_P1;PMS_P2;Temp;Humidity;BMP_temperature;BMP_pressure;BME280_temperature;BME280_humidity;BME280_pressure;Samples;Min_cycle;Max_cycle;Signal;HPM_P1;HPM_P2
2022/03/28 00:00:11;;;;;;;12.03;8.90;;;9.20;1.00;;;;;;4972988;28;20468;-79
2022/03/28 00:02:43;;;;;;;10.30;8.80;;;9.20;1.00;;;;;;4975720;28;20459;-80
2022/03/28 00:05:11;;;;;;;12.37;8.67;;;9.20;1.00;;;;;;4970275;28;20447;-79
2022/03/28 00:07:39;;;;;;;10.07;7.80;;;9.10;1.00;;;;;;4970335;28;20468;-79
2022/03/28 00:10:12;;;;;;;10.53;8.10;;;9.10;1.00;;;;;;4967470;28;20480;-80
2022/03/28 00:12:40;;;;;;;10.50;8.05;;;9.10;1.00;;;;;;4967396;28;20469;-79
2022/03/28 00:15:11;;;;;;;8.43;7.53;;;9.00;1.00;;;;;;4968501;28;20247;-80
2022/03/28 00:17:38;;;;;;;11.00;8.40;;;9.00;1.00;;;;;;4978859;28;20458;-80
2022/03/28 00:20:11;;;;;;;8.70;7.80;;;9.00;1.00;;;;;;4980379;28;20428;-79
2022/03/28 00:22:38;;;;;;;10.50;8.10;;;8.90;1.00;;;;;;4973740;28;21075;-81
2022/03/28 00:25:12;;;;;;;10.63;7.80;;;8.90;1.00;;;;;;4971537;28;20469;-81
2022/03/28 00:27:40;;;;;;;10.37;8.40;;;8.80;1.00;;;;;;4968574;28;20463;-80
2022/03/28 00:30:11;;;;;;;10.73;8.55;;;8.80;1.00;;;;;;4969165;28;20440;-79
2022/03/28 00:32:41;;;;;;;10.00;8.27;;;8.80;1.00;;;;;;4976533;28;20307;-80
2022/03/28 00:35:09;;;;;;;8.43;7.33;;;8.70;1.00;;;;;;4972194;28;20432;-81
2022/03/28 00:37:39;;;;;;;11.77;7.63;;;8.70;1.00;;;;;;4984264;28;20846;-79
2022/03/28 00:40:12;;;;;;;8.80;7.90;;;8.70;1.00;;;;;;4981026;28;20431;-80
2022/03/28 00:42:39;;;;;;;8.70;7.30;;;8.70;1.00;;;;;;4968363;28;20521;-81
2022/03/28 00:45:12;;;;;;;10.43;7.50;;;8.70;1.00;;;;;;4958424;28;20488;-81
2022/03/28 00:47:39;;;;;;;9.67;8.60;;;8.80;1.00;;;;;;4952674;28;21151;-81
2022/03/28 00:50:11;;;;;;;10.47;7.80;;;8.80;1.00;;;;;;4974010;28;20476;-80
2022/03/28 00:52:40;;;;;;;10.00;7.63;;;8.80;1.00;;;;;;4964446;28;25223;-82
2022/03/28 00:55:10;;;;;;;8.80;7.67;;;8.80;1.00;;;;;;4954269;28;20244;-80
2022/03/28 00:57:39;;;;;;;9.33;7.30;;;8.90;1.00;;;;;;4957045;28;20898;-80
2022/03/28 01:00:14;;;;;;;11.23;7.30;;;8.90;1.00;;;;;;4944383;28;20444;-81
2022/03/28 01:02:57;;;;;;;39.50;26.95;;;8.90;1.00;;;;;;4960885;28;20578;-80
2022/03/28 01:05:36;;;;;;;10.23;8.07;;;8.70;1.00;;;;;;4971816;28;20401;-82
2022/03/28 01:08:12;;;;;;;11.17;7.90;;;8.70;1.00;;;;;;4983756;28;20414;-79
2022/03/28 01:10:47;;;;;;;12.60;8.53;;;8.60;1.00;;;;;;4967494;28;20464;-80
2022/03/28 01:13:14;;;;;;;9.95;7.40;;;8.50;1.00;;;;;;4966538;28;20489;-80
2022/03/28 01:15:49;;;;;;;8.73;7.43;;;8.50;1.00;;;;;;4983728;28;20235;-79
2022/03/28 01:18:18;;;;;;;11.25;8.13;;;8.40;1.00;;;;;;4986403;28;20434;-79
2022/03/28 01:20:58;;;;;;;8.82;7.75;;;8.30;1.00;;;;;;4984692;28;20331;-79
2022/03/28 01:23:36;;;;;;;9.60;7.30;;;8.30;1.00;;;;;;4978302;28;20267;-80
2022/03/28 01:26:12;;;;;;;9.67;7.80;;;8.30;1.00;;;;;;4981516;28;20242;-79
2022/03/28 01:28:39;;;;;;;8.82;7.53;;;8.40;1.00;;;;;;4975562;28;21422;-79
2022/03/28 01:31:12;;;;;;;12.32;8.07;;;8.30;1.00;;;;;;4969020;28;20361;-80
2022/03/28 01:33:38;;;;;;;13.98;7.68;;;8.20;1.00;;;;;;4971655;28;20258;-81
2022/03/28 01:36:12;;;;;;;10.40;7.63;;;8.20;1.00;;;;;;4969399;28;20699;-83
2022/03/28 01:38:39;;;;;;;11.27;8.70;;;8.10;1.00;;;;;;4973303;28;20603;-79
2022/03/28 01:41:10;;;;;;;9.13;8.23;;;8.10;1.00;;;;;;4979956;28;20527;-79
2022/03/28 01:43:36;;;;;;;11.88;7.93;;;8.10;1.00;;;;;;4971714;28;20428;-81
2022/03/28 01:46:09;;;;;;;10.63;7.10;;;8.10;1.00;;;;;;4983923;28;20258;-79
2022/03/28 01:48:35;;;;;;;11.23;8.95;;;8.10;1.00;;;;;;4970678;28;21517;-81
2022/03/28 01:51:11;;;;;;;12.32;8.70;;;8.10;1.00;;;;;;4975000;28;20236;-79
2022/03/28 01:53:39;;;;;;;15.07;8.47;;;8.10;1.00;;;;;;4962736;28;21150;-80
2022/03/28 01:56:09;;;;;;;8.93;7.63;;;8.10;1.00;;;;;;4974563;28;21471;-82
2022/03/28 01:58:36;;;;;;;9.60;7.38;;;8.00;1.00;;;;;;4974345;28;20871;-81
2022/03/28 02:01:03;;;;;;;9.73;7.40;;;8.00;1.00;;;;;;4961844;28;20241;-79
2022/03/28 02:03:29;;;;;;;10.00;7.88;;;8.00;1.00;;;;;;4963656;28;21109;-81
2022/03/28 02:05:57;;;;;;;8.90;7.73;;;8.00;1.00;;;;;;4960719;28;20304;-81
2022/03/28 02:08:29;;;;;;;11.70;8.50;;;8.00;1.00;;;;;;4955027;28;20499;-83
2022/03/28 02:10:57;;;;;;;11.23;8.88;;;7.90;1.00;;;;;;4956858;28;20680;-81
2022/03/28 02:13:30;;;;;;;11.13;8.73;;;7.90;1.00;;;;;;4968912;28;20765;-81
2022/03/28 02:15:58;;;;;;;12.00;8.80;;;7.90;1.00;;;;;;4966216;28;20241;-82
2022/03/28 02:18:34;;;;;;;9.55;8.43;;;7.80;1.00;;;;;;4962980;28;20465;-79
2022/03/28 02:21:02;;;;;;;10.10;8.23;;;7.70;1.00;;;;;;4969989;28;21242;-81
2022/03/28 02:23:32;;;;;;;11.88;9.43;;;7.80;1.00;;;;;;4973460;28;20283;-80
2022/03/28 02:26:00;;;;;;;11.38;8.73;;;7.70;1.00;;;;;;4969391;28;20255;-79
2022/03/28 02:28:31;;;;;;;11.93;8.67;;;7.60;1.00;;;;;;4972836;28;20220;-80
2022/03/28 02:30:58;;;;;;;12.02;9.18;;;7.60;1.00;;;;;;4974739;28;20506;-80
2022/03/28 02:33:27;;;;;;;9.10;8.20;;;7.60;1.00;;;;;;4974656;28;20267;-80
2022/03/28 02:35:54;;;;;;;11.10;8.52;;;7.60;1.00;;;;;;4976513;28;20240;-80
2022/03/28 02:38:20;;;;;;;12.45;8.98;;;7.50;1.00;;;;;;4969840;28;20270;-81
2022/03/28 02:40:51;;;;;;;13.75;11.00;;;7.60;1.00;;;;;;4969152;28;20236;-80
2022/03/28 02:43:21;;;;;;;12.07;8.45;;;7.60;1.00;;;;;;4970196;28;20294;-79
2022/03/28 02:45:49;;;;;;;12.73;9.70;;;7.60;1.00;;;;;;4976975;28;20427;-82
2022/03/28 02:48:17;;;;;;;12.75;10.45;;;7.60;1.00;;;;;;4975498;28;20846;-79
2022/03/28 02:50:51;;;;;;;13.35;9.07;;;7.60;1.00;;;;;;4972810;28;20732;-80
2022/03/28 02:53:18;;;;;;;12.57;9.50;;;7.50;1.00;;;;;;4969945;28;20302;-80
2022/03/28 02:55:52;;;;;;;9.65;8.38;;;7.50;1.00;;;;;;4972728;28;20221;-80
2022/03/28 02:58:20;;;;;;;12.57;9.48;;;7.40;1.00;;;;;;4971886;28;20340;-78
2022/03/28 03:00:51;;;;;;;11.80;8.60;;;7.30;1.00;;;;;;4971723;28;20228;-81
2022/03/28 03:03:19;;;;;;;16.77;10.60;;;7.30;1.00;;;;;;4973726;28;20240;-80
2022/03/28 03:05:50;;;;;;;14.30;8.88;;;7.20;1.00;;;;;;4974097;28;20263;-80
2022/03/28 03:08:17;;;;;;;10.43;8.43;;;7.20;1.00;;;;;;4980840;28;20236;-78
2022/03/28 03:10:49;;;;;;;13.50;9.55;;;7.10;1.00;;;;;;4983195;28;20271;-79
2022/03/28 03:13:15;;;;;;;15.98;8.70;;;7.10;1.00;;;;;;4975312;28;20255;-79
2022/03/28 03:15:48;;;;;;;11.88;8.50;;;7.20;1.00;;;;;;4976609;28;20284;-81
2022/03/28 03:18:15;;;;;;;14.27;9.00;;;7.30;1.00;;;;;;4961757;28;20271;-80
2022/03/28 03:20:42;;;;;;;15.02;9.98;;;7.30;1.00;;;;;;4969530;28;21051;-82
2022/03/28 03:23:09;;;;;;;11.82;8.75;;;7.30;1.00;;;;;;4976961;28;20350;-81
2022/03/28 03:25:36;;;;;;;12.35;8.90;;;7.30;1.00;;;;;;4973275;28;20235;-79
2022/03/28 03:28:03;;;;;;;12.85;9.07;;;7.30;1.00;;;;;;4979018;28;20228;-82
2022/03/28 03:30:30;;;;;;;15.82;9.70;;;7.20;1.00;;;;;;4975509;23;20306;-80
2022/03/28 03:33:01;;;;;;;13.50;9.23;;;7.20;1.00;;;;;;4936782;28;20248;-81
2022/03/28 03:36:01;;;;;;;;;;;;;;;;;;;;;
2022/03/28 03:41:20;;;;;;;13.00;9.20;;;7.10;1.00;;;;;;5052745;23;20440;-81
2022/03/28 03:44:11;;;;;;;12.35;8.50;;;7.20;1.00;;;;;;4955283;28;20325;-83
2022/03/28 03:46:51;;;;;;;10.55;8.32;;;7.10;1.00;;;;;;4908984;28;20289;-80
2022/03/28 03:52:15;;;;;;;11.40;8.77;;;7.10;1.00;;;;;;4916936;23;20343;-81
2022/03/28 03:54:42;;;;;;;12.77;8.90;;;7.10;1.00;;;;;;4949889;28;20228;-81
2022/03/28 03:57:12;;;;;;;11.63;8.48;;;7.10;1.00;;;;;;4945658;28;20461;-79
2022/03/28 04:00:12;;;;;;;13.15;9.00;;;7.10;1.00;;;;;;4948524;28;20267;-80
2022/03/28 04:02:40;;;;;;;16.65;9.63;;;7.10;1.00;;;;;;4918248;28;20288;-80
2022/03/28 04:05:12;;;;;;;13.85;9.73;;;7.10;1.00;;;;;;4923684;28;20313;-80
2022/03/28 04:07:50;;;;;;;11.10;9.40;;;7.10;1.00;;;;;;4902258;28;20234;-79
2022/03/28 04:15:39;;;;;;;12.73;9.10;;;7.10;1.00;;;;;;3102111;23;20243;-80
2022/03/28 04:18:42;;;;;;;14.10;9.30;;;7.10;1.00;;;;;;4928917;28;20543;-84
2022/03/28 04:24:01;;;;;;;22.05;14.85;;;7.00;1.00;;;;;;4944717;28;20237;-78
2022/03/28 04:26:42;;;;;;;13.63;8.77;;;6.90;1.00;;;;;;4938155;28;20296;-78
2022/03/28 04:29:32;;;;;;;;;;;;;;;;;;;;;
2022/03/28 04:32:01;;;;;;;13.93;9.68;;;6.90;1.00;;;;;;4938060;28;50671;-82
2022/03/28 04:34:31;;;;;;;14.73;9.32;;;6.90;1.00;;;;;;4947428;28;20237;-81
2022/03/28 04:37:02;;;;;;;12.77;9.23;;;6.90;1.00;;;;;;4938861;28;20233;-79
2022/03/28 04:39:39;;;;;;;14.55;9.95;;;6.90;1.00;;;;;;4958802;28;20241;-80
2022/03/28 04:42:08;;;;;;;36.58;15.80;;;6.80;1.00;;;;;;4961546;28;20229;-80
2022/03/28 04:44:40;;;;;;;22.02;10.90;;;6.90;1.00;;;;;;4935964;28;20271;-79
2022/03/28 04:47:10;;;;;;;24.63;11.85;;;6.90;1.00;;;;;;4955310;28;20233;-78
2022/03/28 04:49:37;;;;;;;16.05;9.90;;;6.90;1.00;;;;;;4944981;28;20241;-79
2022/03/28 04:52:14;;;;;;;32.15;25.85;;;6.90;1.00;;;;;;4938928;28;20238;-79
2022/03/28 04:54:42;;;;;;;15.45;10.10;;;6.90;1.00;;;;;;4949742;28;20233;-79
2022/03/28 04:57:09;;;;;;;15.60;9.50;;;6.80;1.00;;;;;;4953191;28;20255;-80
2022/03/28 04:59:36;;;;;;;13.48;9.13;;;6.80;1.00;;;;;;4965668;28;20237;-79
2022/03/28 05:02:08;;;;;;;15.00;9.30;;;6.80;1.00;;;;;;4956155;28;20217;-79
2022/03/28 05:04:36;;;;;;;18.65;10.50;;;6.80;1.00;;;;;;4953372;28;20236;-80
2022/03/28 05:07:03;;;;;;;11.68;9.52;;;6.70;1.00;;;;;;4952868;28;20241;-81
2022/03/28 05:09:32;;;;;;;15.70;10.63;;;6.80;1.00;;;;;;4945300;28;20244;-82
2022/03/28 05:12:00;;;;;;;18.00;11.73;;;6.80;1.00;;;;;;4951145;28;20308;-80
2022/03/28 05:14:31;;;;;;;14.40;11.15;;;6.80;1.00;;;;;;4939016;28;20238;-80
2022/03/28 05:16:58;;;;;;;19.75;11.57;;;6.70;1.00;;;;;;4940008;28;20312;-82
2022/03/28 05:19:29;;;;;;;16.27;9.73;;;6.80;1.00;;;;;;4931689;28;20238;-79
2022/03/28 05:21:56;;;;;;;16.92;9.13;;;6.80;1.00;;;;;;4936540;28;20250;-79
2022/03/28 05:24:23;;;;;;;14.95;8.52;;;6.90;1.00;;;;;;4951651;28;20241;-80
2022/03/28 05:26:50;;;;;;;16.88;9.50;;;7.00;1.00;;;;;;4959545;28;20240;-80
2022/03/28 05:29:18;;;;;;;21.08;9.60;;;7.20;1.00;;;;;;4956171;28;20237;-81
2022/03/28 05:31:51;;;;;;;12.73;9.55;;;7.30;1.00;;;;;;4952918;28;20297;-80
2022/03/28 05:34:18;;;;;;;20.80;10.52;;;7.40;1.00;;;;;;4951833;28;24329;-79
2022/03/28 05:36:55;;;;;;;14.80;8.95;;;7.50;1.00;;;;;;4949887;28;20270;-81
2022/03/28 05:39:21;;;;;;;11.83;8.20;;;7.60;1.00;;;;;;4938387;28;20267;-79
2022/03/28 05:41:53;;;;;;;17.42;11.45;;;7.70;1.00;;;;;;4952621;28;20420;-78
2022/03/28 05:44:21;;;;;;;20.05;9.15;;;7.70;1.00;;;;;;4959675;28;20233;-79
2022/03/28 05:46:51;;;;;;;15.45;9.30;;;7.80;1.00;;;;;;4954584;28;20261;-78
2022/03/28 05:49:19;;;;;;;14.80;9.38;;;7.90;1.00;;;;;;4949765;28;20241;-78
2022/03/28 05:51:51;;;;;;;15.23;10.20;;;7.90;1.00;;;;;;4950830;28;20221;-78
2022/03/28 05:54:19;;;;;;;15.95;11.02;;;8.00;1.00;;;;;;4954750;28;20256;-77
2022/03/28 05:56:49;;;;;;;16.27;10.65;;;8.00;1.00;;;;;;4955210;28;20261;-78
2022/03/28 05:59:16;;;;;;;15.18;9.93;;;8.10;1.00;;;;;;4953633;28;20337;-80
2022/03/28 06:01:48;;;;;;;14.60;10.45;;;8.10;1.00;;;;;;4938531;28;20233;-78
2022/03/28 06:04:15;;;;;;;15.52;10.00;;;8.20;1.00;;;;;;4935836;28;20303;-78
2022/03/28 06:06:42;;;;;;;14.00;9.95;;;8.20;1.00;;;;;;4942997;28;20252;-77
2022/03/28 06:09:11;;;;;;;16.67;9.85;;;8.20;1.00;;;;;;4937036;29;20233;-77
2022/03/28 06:11:37;;;;;;;13.60;9.80;;;8.30;1.00;;;;;;4932929;28;20306;-77
2022/03/28 06:14:12;;;;;;;13.57;9.60;;;8.40;1.00;;;;;;4938024;28;20233;-77
2022/03/28 06:16:38;;;;;;;13.30;9.32;;;8.50;1.00;;;;;;4950022;28;20305;-78
2022/03/28 06:19:11;;;;;;;13.73;10.10;;;8.50;1.00;;;;;;4932840;28;20233;-78
2022/03/28 06:21:38;;;;;;;15.00;10.30;;;8.50;1.00;;;;;;4955028;28;20524;-76
2022/03/28 06:24:09;;;;;;;19.00;10.63;;;8.60;1.00;;;;;;4952794;28;20480;-77
2022/03/28 06:26:36;;;;;;;16.70;10.53;;;8.70;1.00;;;;;;4955844;28;20268;-77
2022/03/28 06:29:03;;;;;;;16.65;10.38;;;8.80;1.00;;;;;;4960029;28;20469;-77
2022/03/28 06:31:30;;;;;;;18.92;9.95;;;8.80;1.00;;;;;;4954817;28;20241;-79
2022/03/28 06:34:01;;;;;;;18.33;10.30;;;8.80;1.00;;;;;;4958844;28;20247;-78
2022/03/28 06:36:32;;;;;;;19.33;10.27;;;8.90;1.00;;;;;;4946427;28;20242;-77
2022/03/28 06:39:00;;;;;;;17.05;10.70;;;8.90;1.00;;;;;;4956286;28;20284;-77
2022/03/28 06:41:30;;;;;;;15.00;10.03;;;9.10;1.00;;;;;;4955656;28;20225;-77
2022/03/28 06:43:56;;;;;;;15.27;10.65;;;9.10;1.00;;;;;;4939566;28;20488;-79
2022/03/28 06:46:23;;;;;;;24.25;11.30;;;9.20;1.00;;;;;;4948121;28;20233;-76
2022/03/28 06:48:52;;;;;;;16.65;10.02;;;9.20;1.00;;;;;;4957048;28;20249;-77
2022/03/28 06:51:19;;;;;;;11.93;9.20;;;9.20;1.00;;;;;;4949019;28;20282;-77
2022/03/28 06:53:51;;;;;;;15.82;10.02;;;9.30;1.00;;;;;;4950214;28;20437;-78
2022/03/28 06:56:18;;;;;;;14.75;10.98;;;9.30;1.00;;;;;;4956357;28;20248;-78
2022/03/28 06:58:49;;;;;;;16.85;10.63;;;9.30;1.00;;;;;;4964761;28;20233;-77
2022/03/28 07:01:16;;;;;;;18.27;10.13;;;9.40;1.00;;;;;;4958650;28;20395;-79
2022/03/28 07:03:43;;;;;;;14.88;10.13;;;9.50;1.00;;;;;;4942844;28;20468;-77
2022/03/28 07:06:10;;;;;;;11.63;9.15;;;9.60;1.00;;;;;;4940492;28;20222;-77
2022/03/28 07:08:37;;;;;;;14.47;9.20;;;9.70;1.00;;;;;;4941619;28;20300;-80
2022/03/28 07:11:10;;;;;;;15.63;8.60;;;9.70;1.00;;;;;;4948450;28;20478;-76
2022/03/28 07:13:37;;;;;;;13.38;8.70;;;9.80;1.00;;;;;;4947382;28;21106;-77
2022/03/28 07:16:08;;;;;;;15.13;9.10;;;9.90;1.00;;;;;;4955195;28;20251;-81
2022/03/28 07:18:36;;;;;;;14.20;8.87;;;9.90;1.00;;;;;;4955031;28;20532;-79
2022/03/28 07:21:03;;;;;;;14.83;8.53;;;10.00;1.00;;;;;;4944168;28;21413;-77
2022/03/28 07:23:30;;;;;;;12.67;8.70;;;10.10;1.00;;;;;;4933087;28;20573;-77
2022/03/28 07:25:57;;;;;;;13.50;9.10;;;10.20;1.00;;;;;;4931852;28;20458;-80
2022/03/28 07:28:24;;;;;;;10.17;8.07;;;10.30;1.00;;;;;;4932875;28;20961;-77
2022/03/28 07:30:56;;;;;;;16.80;10.10;;;10.40;1.00;;;;;;4931273;28;20454;-79
2022/03/28 07:33:24;;;;;;;19.63;15.37;;;10.60;1.00;;;;;;4915681;28;20490;-78
2022/03/28 07:36:00;;;;;;;11.83;8.40;;;10.70;1.00;;;;;;4935959;28;20478;-78
2022/03/28 07:38:27;;;;;;;13.23;9.03;;;10.80;1.00;;;;;;4941396;28;20514;-76
2022/03/28 07:40:55;;;;;;;18.80;9.17;;;11.00;1.00;;;;;;4960782;28;20422;-78
2022/03/28 07:43:22;;;;;;;11.30;8.50;;;11.10;1.00;;;;;;4944745;28;20465;-78
2022/03/28 07:45:56;;;;;;;15.27;10.10;;;11.20;1.00;;;;;;4954325;28;20532;-80
2022/03/28 07:48:23;;;;;;;10.47;8.10;;;11.30;1.00;;;;;;4912587;28;20434;-77
2022/03/28 07:50:51;;;;;;;12.90;8.40;;;11.40;1.00;;;;;;4944850;28;20500;-76
2022/03/28 07:53:18;;;;;;;9.80;7.93;;;11.60;1.00;;;;;;4955317;28;20433;-80
2022/03/28 07:55:45;;;;;;;13.27;8.90;;;11.70;1.00;;;;;;4935506;28;20468;-79
2022/03/28 07:58:16;;;;;;;15.40;9.23;;;11.70;1.00;;;;;;4967366;28;20434;-75
2022/03/28 08:00:42;;;;;;;9.10;7.67;;;11.80;1.00;;;;;;4967875;28;20496;-76
2022/03/28 08:03:15;;;;;;;10.90;8.47;;;11.90;1.00;;;;;;4970483;28;20544;-79
2022/03/28 08:05:42;;;;;;;14.80;8.60;;;12.00;1.00;;;;;;4956884;28;20533;-76
2022/03/28 08:08:08;;;;;;;12.27;8.07;;;12.00;1.00;;;;;;4940641;28;20446;-77
2022/03/28 08:10:37;;;;;;;12.70;7.93;;;12.10;1.00;;;;;;4959856;28;20450;-77
2022/03/28 08:13:03;;;;;;;14.50;8.80;;;12.30;1.00;;;;;;4971428;28;20429;-76
2022/03/28 08:15:39;;;;;;;15.10;8.93;;;12.40;1.00;;;;;;4942886;28;20425;-78
2022/03/28 08:18:06;;;;;;;10.60;7.57;;;12.50;1.00;;;;;;4946137;28;20452;-76
2022/03/28 08:20:36;;;;;;;8.33;6.77;;;12.60;1.00;;;;;;4963350;28;20425;-77
2022/03/28 08:23:06;;;;;;;11.43;7.07;;;12.70;1.00;;;;;;4967264;28;20429;-76
2022/03/28 08:25:35;;;;;;;13.33;8.10;;;12.80;1.00;;;;;;4942459;28;20466;-78
2022/03/28 08:28:02;;;;;;;10.70;8.00;;;12.80;1.00;;;;;;4949715;28;20498;-77
2022/03/28 08:30:29;;;;;;;14.03;7.63;;;13.00;1.00;;;;;;4950126;28;20470;-77
2022/03/28 08:32:58;;;;;;;10.03;7.43;;;13.00;1.00;;;;;;4950529;28;20426;-75
2022/03/28 08:35:27;;;;;;;10.07;8.40;;;13.10;1.00;;;;;;4937213;28;20425;-76
2022/03/28 08:37:55;;;;;;;11.50;7.70;;;13.20;1.00;;;;;;4939167;28;20441;-77
2022/03/28 08:40:48;;;;;;;11.97;7.77;;;13.30;1.00;;;;;;5106057;23;20438;-78
2022/03/28 08:43:19;;;;;;;11.10;7.13;;;13.40;1.00;;;;;;4944420;28;20458;-76
2022/03/28 08:45:49;;;;;;;10.50;7.50;;;13.60;1.00;;;;;;4963127;28;20436;-76
2022/03/28 08:48:17;;;;;;;10.47;6.83;;;13.70;1.00;;;;;;4978025;28;20457;-79
2022/03/28 08:50:45;;;;;;;10.43;6.70;;;13.80;1.00;;;;;;4960519;28;20433;-78
2022/03/28 08:53:18;;;;;;;11.33;6.27;;;13.80;1.00;;;;;;4954900;28;20448;-77
2022/03/28 08:55:46;;;;;;;9.07;6.70;;;13.80;1.00;;;;;;4949497;28;20462;-76
2022/03/28 08:58:17;;;;;;;8.77;6.20;;;13.90;1.00;;;;;;4957659;28;20441;-76
2022/03/28 09:00:43;;;;;;;9.60;6.73;;;14.00;1.00;;;;;;4955364;28;20477;-77
2022/03/28 09:03:10;;;;;;;8.17;6.70;;;14.10;1.00;;;;;;4958855;28;20552;-79
2022/03/28 09:05:41;;;;;;;9.13;6.40;;;14.20;1.00;;;;;;4944326;28;20466;-76
2022/03/28 09:08:10;;;;;;;10.93;6.30;;;14.30;1.00;;;;;;4937511;28;20516;-75
2022/03/28 09:10:37;;;;;;;11.00;6.33;;;14.40;1.00;;;;;;4943827;28;20528;-76
2022/03/28 09:13:06;;;;;;;12.40;5.50;;;14.60;1.00;;;;;;4948968;28;20442;-78
2022/03/28 09:15:52;;;;;;;7.60;5.60;;;14.80;1.00;;;;;;4933274;28;20570;-78
2022/03/28 09:18:27;;;;;;;7.80;5.27;;;15.10;1.00;;;;;;4951929;28;20478;-77
2022/03/28 09:21:02;;;;;;;9.03;6.67;;;15.30;1.00;;;;;;4941279;28;20532;-78
2022/03/28 09:23:36;;;;;;;7.43;5.47;;;15.70;1.00;;;;;;4931463;28;20800;-76
2022/03/28 09:26:11;;;;;;;7.00;5.67;;;16.70;1.00;;;;;;4945624;28;20508;-77
2022/03/28 09:28:47;;;;;;;8.80;5.37;;;18.50;1.00;;;;;;4893150;28;20465;-75
2022/03/28 09:31:28;;;;;;;4.83;4.33;;;20.10;1.00;;;;;;4910535;28;20495;-76
2022/03/28 09:34:00;;;;;;;10.63;5.50;;;21.30;1.00;;;;;;4924407;28;20504;-77
2022/03/28 09:36:48;;;;;;;11.10;5.27;;;22.70;1.00;;;;;;4893368;28;20503;-76
2022/03/28 09:39:17;;;;;;;8.20;6.17;;;24.00;1.00;;;;;;4916590;28;20477;-78
2022/03/28 09:41:59;;;;;;;7.73;4.70;;;24.50;1.00;;;;;;4954280;28;20450;-76
2022/03/28 09:44:37;;;;;;;7.70;5.00;;;25.00;1.00;;;;;;4944859;28;20882;-76
2022/03/28 09:47:07;;;;;;;6.60;4.40;;;25.60;1.00;;;;;;4941669;28;20454;-78
2022/03/28 09:49:38;;;;;;;7.00;5.00;;;26.00;1.00;;;;;;4940242;28;20481;-77
2022/03/28 09:52:08;;;;;;;7.77;4.93;;;26.10;1.00;;;;;;4935507;28;20489;-75
2022/03/28 09:54:46;;;;;;;6.50;4.80;;;26.50;1.00;;;;;;4971631;28;20681;-76
2022/03/28 09:57:19;;;;;;;6.60;5.37;;;26.70;1.00;;;;;;4937376;28;20464;-78
2022/03/28 09:59:46;;;;;;;6.90;4.73;;;26.90;1.00;;;;;;4960161;28;20460;-77
2022/03/28 10:02:20;;;;;;;7.97;5.17;;;26.70;1.00;;;;;;4951841;28;20441;-77
2022/03/28 10:04:50;;;;;;;7.13;6.00;;;26.40;1.00;;;;;;4940724;28;20556;-76
2022/03/28 10:07:20;;;;;;;7.90;4.90;;;26.30;1.00;;;;;;4928201;28;20475;-76
2022/03/28 10:09:48;;;;;;;6.27;4.83;;;26.60;1.00;;;;;;4972445;23;20499;-76
2022/03/28 10:12:19;;;;;;;5.83;4.40;;;27.10;1.00;;;;;;4970601;28;20723;-79
2022/03/28 10:14:48;;;;;;;7.57;5.43;;;27.30;1.00;;;;;;4985317;28;20506;-78
2022/03/28 10:17:24;;;;;;;6.03;4.90;;;27.70;1.00;;;;;;4952271;28;20481;-85
2022/03/28 10:22:27;;;;;;;7.67;5.17;;;28.30;1.00;;;;;;4927271;28;21934;-78
2022/03/28 10:24:58;;;;;;;5.93;4.57;;;28.50;1.00;;;;;;4928220;28;20543;-77
2022/03/28 10:27:27;;;;;;;8.70;5.30;;;28.70;1.00;;;;;;4927593;28;20597;-79
2022/03/28 10:29:54;;;;;;;6.30;4.60;;;28.80;1.00;;;;;;4943038;28;20505;-79
2022/03/28 10:32:22;;;;;;;6.70;4.60;;;28.70;1.00;;;;;;4939138;28;20440;-79
2022/03/28 10:34:52;;;;;;;8.23;5.53;;;29.00;1.00;;;;;;4937042;28;20489;-76
2022/03/28 10:37:32;;;;;;;6.03;5.43;;;28.60;1.00;;;;;;4945932;28;20477;-76
2022/03/28 10:40:21;;;;;;;6.40;4.87;;;28.20;1.00;;;;;;4967024;23;20478;-76
2022/03/28 10:42:57;;;;;;;6.73;4.93;;;28.50;1.00;;;;;;4979404;28;20873;-80
2022/03/28 10:45:47;;;;;;;4.83;4.03;;;28.50;1.00;;;;;;4953915;28;20463;-77
2022/03/28 10:48:39;;;;;;;6.80;4.87;;;28.60;1.00;;;;;;4971707;28;20435;-77
2022/03/28 10:51:12;;;;;;;8.10;4.40;;;28.90;1.00;;;;;;4974765;28;20420;-77
2022/03/28 10:53:47;;;;;;;7.23;4.30;;;29.00;1.00;;;;;;4969362;28;20488;-75
2022/03/28 10:56:16;;;;;;;4.70;4.03;;;29.20;1.00;;;;;;4967814;28;20567;-75
2022/03/28 10:58:52;;;;;;;7.37;4.57;;;29.20;1.00;;;;;;4969905;28;20504;-78
2022/03/28 11:01:26;;;;;;;5.50;3.50;;;30.00;1.00;;;;;;4968386;28;20503;-76
2022/03/28 11:03:57;;;;;;;5.73;4.10;;;30.20;1.00;;;;;;4973190;28;20476;-76
2022/03/28 11:06:46;;;;;;;5.70;4.17;;;30.40;1.00;;;;;;4960645;28;20468;-76
2022/03/28 11:09:32;;;;;;;4.43;3.77;;;30.40;1.00;;;;;;4975919;28;20472;-78
2022/03/28 11:12:01;;;;;;;5.93;5.20;;;30.10;1.00;;;;;;4969515;28;20507;-76
2022/03/28 11:14:46;;;;;;;6.40;4.40;;;30.60;1.00;;;;;;4974361;28;20473;-76
2022/03/28 11:17:15;;;;;;;7.33;4.73;;;30.20;1.00;;;;;;4965345;28;20480;-77
2022/03/28 11:20:08;;;;;;;7.67;5.23;;;30.40;1.00;;;;;;4964596;28;20463;-76
2022/03/28 11:23:07;;;;;;;7.70;5.57;;;30.30;1.00;;;;;;4958352;28;20436;-77
2022/03/28 11:25:38;;;;;;;7.90;4.87;;;29.90;1.00;;;;;;4968683;28;20610;-76
2022/03/28 11:28:09;;;;;;;7.67;5.40;;;30.30;1.00;;;;;;4973304;28;20568;-78
2022/03/28 11:30:49;;;;;;;5.30;4.80;;;30.50;1.00;;;;;;4972529;28;20452;-76
2022/03/28 11:33:21;;;;;;;5.80;4.60;;;30.60;1.00;;;;;;4966377;28;20428;-78
2022/03/28 11:35:57;;;;;;;7.43;5.90;;;30.40;1.00;;;;;;4975599;28;20499;-77
2022/03/28 11:38:27;;;;;;;7.70;4.53;;;30.50;1.00;;;;;;4971524;28;20563;-76
2022/03/28 11:40:55;;;;;;;6.13;4.70;;;31.30;1.00;;;;;;4972598;28;20478;-77
2022/03/28 11:43:35;;;;;;;6.40;4.80;;;32.00;1.00;;;;;;4968987;28;20496;-76
2022/03/28 11:46:13;;;;;;;5.77;4.33;;;32.10;1.00;;;;;;4972820;28;20435;-76
2022/03/28 11:49:19;;;;;;;6.83;5.50;;;32.10;1.00;;;;;;4974032;28;20451;-76
2022/03/28 11:52:04;;;;;;;7.20;5.03;;;32.20;1.00;;;;;;4975144;28;20413;-77
2022/03/28 11:54:32;;;;;;;5.70;5.13;;;32.20;1.00;;;;;;4971941;28;20559;-77
2022/03/28 11:59:51;;;;;;;5.60;4.43;;;32.40;1.00;;;;;;4970630;28;20472;-76
2022/03/28 12:02:20;;;;;;;6.43;4.53;;;32.10;1.00;;;;;;4958930;28;20507;-77
2022/03/28 12:04:49;;;;;;;4.90;4.30;;;32.60;1.00;;;;;;4964210;28;20494;-75
2022/03/28 12:07:16;;;;;;;4.97;3.40;;;33.20;1.00;;;;;;4955957;28;20472;-76
2022/03/28 12:09:48;;;;;;;6.40;4.73;;;33.70;1.00;;;;;;4963891;28;20448;-77
2022/03/28 12:12:20;;;;;;;6.03;3.23;;;33.00;1.00;;;;;;4963048;28;20441;-75
2022/03/28 12:14:56;;;;;;;6.60;3.53;;;32.90;1.00;;;;;;4968705;28;20500;-76
2022/03/28 12:17:30;;;;;;;6.17;4.10;;;33.20;1.00;;;;;;4965586;28;20468;-77
2022/03/28 12:20:08;;;;;;;4.87;3.73;;;33.50;1.00;;;;;;4969906;28;20441;-77
2022/03/28 12:22:50;;;;;;;5.73;5.17;;;33.70;1.00;;;;;;4960140;28;20456;-77
2022/03/28 12:25:29;;;;;;;8.43;4.20;;;33.80;1.00;;;;;;4964153;28;21896;-77
2022/03/28 12:27:57;;;;;;;6.10;4.93;;;33.40;1.00;;;;;;4969019;28;21041;-77
2022/03/28 12:30:32;;;;;;;7.10;5.10;;;33.10;1.00;;;;;;4971200;28;20460;-77
2022/03/28 12:33:12;;;;;;;5.80;4.00;;;32.80;1.00;;;;;;4976182;28;20493;-78
2022/03/28 12:35:42;;;;;;;5.30;4.20;;;32.60;1.00;;;;;;4976002;28;20495;-77
2022/03/28 12:38:11;;;;;;;5.53;4.60;;;32.60;1.00;;;;;;4972196;28;20504;-77
2022/03/28 12:40:37;;;;;;;10.37;6.90;;;32.60;1.00;;;;;;4975614;28;20476;-77
2022/03/28 12:43:09;;;;;;;5.33;4.83;;;32.60;1.00;;;;;;4972480;28;20487;-76
2022/03/28 12:45:35;;;;;;;6.50;4.70;;;33.00;1.00;;;;;;4978420;28;20457;-78
2022/03/28 12:48:12;;;;;;;6.90;5.60;;;32.20;1.00;;;;;;4973642;28;20480;-77
2022/03/28 12:50:56;;;;;;;6.77;5.67;;;32.70;1.00;;;;;;4978529;28;20444;-76
2022/03/28 12:53:35;;;;;;;5.20;4.70;;;32.80;1.00;;;;;;4971974;28;20456;-77
2022/03/28 12:56:16;;;;;;;6.20;5.37;;;32.80;1.00;;;;;;4976127;28;20499;-77
2022/03/28 12:58:53;;;;;;;4.90;4.43;;;33.00;1.00;;;;;;4960808;28;20421;-77
2022/03/28 13:01:31;;;;;;;6.17;4.20;;;33.10;1.00;;;;;;4969799;28;20448;-77
2022/03/28 13:04:18;;;;;;;6.40;5.80;;;33.00;1.00;;;;;;4976365;28;21728;-76
2022/03/28 13:06:51;;;;;;;8.07;4.30;;;32.20;1.00;;;;;;4954812;28;20432;-77
2022/03/28 13:09:19;;;;;;;5.10;3.80;;;32.20;1.00;;;;;;4957282;28;20493;-77
2022/03/28 13:11:48;;;;;;;4.70;4.17;;;33.00;1.00;;;;;;4964371;28;20436;-78
2022/03/28 13:14:26;;;;;;;5.67;4.43;;;32.70;1.00;;;;;;4968440;28;20469;-76
2022/03/28 13:17:09;;;;;;;4.43;3.40;;;33.30;1.00;;;;;;4977226;28;20567;-79
2022/03/28 13:19:40;;;;;;;5.13;3.40;;;33.30;1.00;;;;;;4960960;28;20437;-77
2022/03/28 13:22:09;;;;;;;3.67;2.40;;;33.20;1.00;;;;;;4978910;28;20518;-75
2022/03/28 13:24:40;;;;;;;4.47;2.80;;;32.90;1.00;;;;;;4973162;28;20526;-77
2022/03/28 13:29:53;;;;;;;3.20;2.70;;;33.50;1.00;;;;;;4974682;28;20457;-76
2022/03/28 13:32:21;;;;;;;6.00;3.20;;;32.20;1.00;;;;;;4975827;28;20437;-77
2022/03/28 13:34:49;;;;;;;8.20;3.10;;;31.20;1.00;;;;;;4973603;28;20554;-78
2022/03/28 13:37:21;;;;;;;4.90;2.80;;;29.80;1.00;;;;;;4966799;28;20429;-77
2022/03/28 13:39:48;;;;;;;9.10;3.60;;;27.20;1.00;;;;;;4965062;28;20815;-79
2022/03/28 13:42:17;;;;;;;3.90;2.90;;;24.80;1.00;;;;;;4964782;28;20485;-78